Time;durP1;ratioP1;P1;durP2;ratioP2;P2;SDS_P1;SDS_P2;PMS_P1;PMS_P2;Temp;Humidity;BMP_temperature;BMP_pressure;BME280_temperature;BME280_humidity;BME280_pressure;Samples;Min_cycle;Max_cycle;Signal;HPM_P1;HPM_P2
2022/04/25 00:01:10;;;;;;;10.68;5.38;;;8.90;99.90;;;;;;5088339;28;20107;-82
2022/04/25 00:03:36;;;;;;;19.25;5.85;;;7.80;99.90;;;;;;5088014;28;20052;-84
2022/04/25 00:06:02;;;;;;;12.88;6.45;;;8.50;99.90;;;;;;5103220;28;20553;-83
2022/04/25 00:08:28;;;;;;;9.48;5.68;;;8.10;99.90;;;;;;5086449;28;20044;-83
2022/04/25 00:10:53;;;;;;;16.35;5.63;;;8.30;99.90;;;;;;5087745;28;20048;-82
2022/04/25 00:13:19;;;;;;;10.60;5.28;;;9.10;99.90;;;;;;5088025;28;20036;-83
2022/04/25 00:15:45;;;;;;;10.90;6.05;;;8.90;99.90;;;;;;5087671;28;20087;-84
2022/04/25 00:18:11;;;;;;;15.27;6.45;;;8.20;99.90;;;;;;5086164;28;20044;-83
2022/04/25 00:20:36;;;;;;;11.65;5.18;;;9.30;99.90;;;;;;5086503;28;20047;-83
2022/04/25 00:23:04;;;;;;;15.95;6.47;;;7.90;99.90;;;;;;5087371;28;20051;-83
2022/04/25 00:25:34;;;;;;;15.73;5.70;;;8.20;99.90;;;;;;5086101;28;20298;-83
2022/04/25 00:28:03;;;;;;;10.98;5.65;;;9.10;99.90;;;;;;5085992;28;20483;-83
2022/04/25 00:30:29;;;;;;;12.32;6.43;;;8.20;99.90;;;;;;5087568;28;20048;-82
2022/04/25 00:32:56;;;;;;;10.90;5.97;;;8.70;99.90;;;;;;5086570;28;20424;-83
2022/04/25 00:35:23;;;;;;;11.02;5.68;;;8.30;99.90;;;;;;5087491;28;20048;-83
2022/04/25 00:37:50;;;;;;;13.20;6.35;;;8.90;99.90;;;;;;5087154;28;20039;-82
2022/04/25 00:40:17;;;;;;;12.90;6.13;;;8.40;99.90;;;;;;5089214;28;20044;-83
2022/04/25 00:42:43;;;;;;;10.77;6.53;;;9.60;99.90;;;;;;5070907;28;20060;-82
2022/04/25 00:45:13;;;;;;;13.38;5.82;;;9.70;99.90;;;;;;5070768;28;20123;-83
2022/04/25 00:47:39;;;;;;;14.25;6.53;;;8.40;99.90;;;;;;5094442;28;20043;-83
2022/04/25 00:50:06;;;;;;;13.02;5.78;;;8.60;99.90;;;;;;5101150;28;20044;-84
2022/04/25 00:52:33;;;;;;;10.95;6.65;;;8.40;99.90;;;;;;5108109;28;20506;-84
2022/04/25 00:55:01;;;;;;;11.38;6.05;;;9.60;99.90;;;;;;5092499;28;20048;-84
2022/04/25 00:57:28;;;;;;;12.45;6.28;;;9.20;99.90;;;;;;5090032;28;20502;-82
2022/04/25 00:59:57;;;;;;;15.82;6.65;;;8.50;99.90;;;;;;5086995;28;20488;-83
2022/04/25 01:02:25;;;;;;;16.25;6.65;;;8.50;99.90;;;;;;5069370;28;20415;-83
2022/04/25 01:04:50;;;;;;;11.52;6.43;;;8.50;99.90;;;;;;5087313;28;20040;-83
2022/04/25 01:07:16;;;;;;;10.73;6.57;;;9.50;99.90;;;;;;5087018;28;20423;-83
2022/04/25 01:09:42;;;;;;;13.57;6.53;;;9.50;99.90;;;;;;5086729;28;20089;-84
2022/04/25 01:12:08;;;;;;;15.57;7.00;;;9.70;99.90;;;;;;5086512;28;20074;-83
2022/04/25 01:14:33;;;;;;;12.52;6.90;;;8.40;99.90;;;;;;5086726;28;20044;-82
2022/04/25 01:17:00;;;;;;;15.45;7.25;;;9.40;99.90;;;;;;5102567;28;20140;-83
2022/04/25 01:19:26;;;;;;;13.40;6.65;;;9.10;99.90;;;;;;5086817;28;20371;-83
2022/04/25 01:21:59;;;;;;;10.30;6.38;;;9.50;99.90;;;;;;5086865;28;20475;-83
2022/04/25 01:27:17;;;;;;;16.48;6.75;;;8.30;99.90;;;;;;5086561;28;20121;-83
2022/04/25 01:29:44;;;;;;;15.18;7.90;;;8.30;99.90;;;;;;5087099;28;20131;-83
2022/04/25 01:32:10;;;;;;;15.15;6.88;;;8.90;99.90;;;;;;5086720;28;20044;-83
2022/04/25 01:34:37;;;;;;;13.88;7.05;;;9.70;99.90;;;;;;5086661;28;20494;-83
2022/04/25 01:37:08;;;;;;;15.45;7.38;;;8.20;99.90;;;;;;5085074;28;20048;-83
2022/04/25 01:39:45;;;;;;;16.83;6.82;;;8.40;99.90;;;;;;5085217;28;20503;-83
2022/04/25 01:42:11;;;;;;;12.52;6.95;;;8.10;99.90;;;;;;5086169;28;20046;-81
2022/04/25 01:44:38;;;;;;;14.98;8.05;;;8.10;99.90;;;;;;5086510;28;20044;-83
2022/04/25 01:47:04;;;;;;;14.50;7.45;;;9.00;99.90;;;;;;5086697;28;20067;-82
2022/04/25 01:49:31;;;;;;;14.35;7.50;;;8.00;99.90;;;;;;5084867;28;20060;-83
2022/04/25 01:51:59;;;;;;;13.98;7.72;;;9.20;99.90;;;;;;5101983;28;20123;-83
2022/04/25 01:54:26;;;;;;;17.55;8.18;;;8.90;99.90;;;;;;5086775;28;20048;-83
2022/04/25 01:56:53;;;;;;;11.32;6.93;;;8.40;99.90;;;;;;5086417;28;20180;-83
2022/04/25 01:59:20;;;;;;;14.52;6.95;;;9.10;99.90;;;;;;5085890;28;20465;-84
2022/04/25 02:01:46;;;;;;;11.70;7.45;;;8.00;99.90;;;;;;5087968;28;20518;-84
2022/04/25 02:04:12;;;;;;;16.77;7.65;;;8.00;99.90;;;;;;5088563;28;20044;-83
2022/04/25 02:06:37;;;;;;;13.68;6.82;;;8.00;99.90;;;;;;5085997;28;20040;-84
2022/04/25 02:09:03;;;;;;;13.82;6.65;;;8.10;99.90;;;;;;5085954;28;20044;-83
2022/04/25 02:11:31;;;;;;;13.43;6.68;;;8.50;99.90;;;;;;5086923;28;20037;-81
2022/04/25 02:13:57;;;;;;;12.50;6.38;;;8.10;99.90;;;;;;5085208;28;20059;-82
2022/04/25 02:16:24;;;;;;;14.73;7.28;;;8.10;99.90;;;;;;5086655;28;20068;-82
2022/04/25 02:18:52;;;;;;;12.63;6.60;;;8.60;99.90;;;;;;5087260;28;20062;-83
2022/04/25 02:21:19;;;;;;;12.73;6.22;;;9.30;99.90;;;;;;5087694;28;20093;-83
2022/04/25 02:23:44;;;;;;;15.45;6.18;;;9.60;99.90;;;;;;5089295;28;20318;-82
2022/04/25 02:26:10;;;;;;;9.90;5.78;;;8.30;99.90;;;;;;5103529;28;20100;-83
2022/04/25 02:28:37;;;;;;;12.05;6.05;;;8.30;99.90;;;;;;5106612;28;20100;-84
2022/04/25 02:31:05;;;;;;;11.82;5.75;;;8.30;99.90;;;;;;5093124;28;20059;-83
2022/04/25 02:33:32;;;;;;;10.75;5.40;;;9.60;99.90;;;;;;5103821;28;20087;-83
2022/04/25 02:35:59;;;;;;;13.80;5.43;;;8.30;99.90;;;;;;5090343;28;20044;-82
2022/04/25 02:38:25;;;;;;;9.70;5.40;;;8.30;99.90;;;;;;5089936;28;20043;-82
2022/04/25 02:41:04;;;;;;;7.97;4.70;;;8.30;99.90;;;;;;5071844;28;20570;-83
2022/04/25 02:43:48;;;;;;;12.18;4.85;;;8.60;99.90;;;;;;5070927;28;20135;-82
2022/04/25 02:46:15;;;;;;;10.00;5.47;;;9.10;99.90;;;;;;5105256;28;20490;-82
2022/04/25 02:48:45;;;;;;;13.48;4.60;;;8.30;99.90;;;;;;5089718;28;20106;-83
2022/04/25 02:51:12;;;;;;;11.13;5.03;;;9.60;99.90;;;;;;5089577;28;20123;-82
2022/04/25 02:53:39;;;;;;;13.07;5.45;;;9.60;99.90;;;;;;5088388;28;20047;-82
2022/04/25 02:56:05;;;;;;;10.60;6.28;;;8.60;99.90;;;;;;5089321;28;20032;-82
2022/04/25 02:58:32;;;;;;;11.15;5.53;;;9.60;99.90;;;;;;5088375;28;20399;-83
2022/04/25 03:00:59;;;;;;;12.70;4.88;;;9.70;99.90;;;;;;5070702;28;20043;-82
2022/04/25 03:03:26;;;;;;;12.23;5.63;;;8.30;99.90;;;;;;5089460;28;20075;-83
2022/04/25 03:05:53;;;;;;;11.00;5.47;;;8.40;99.90;;;;;;5088974;28;20082;-82
2022/04/25 03:08:21;;;;;;;8.25;4.95;;;8.40;99.90;;;;;;5089508;28;20044;-82
2022/04/25 03:10:49;;;;;;;10.25;4.78;;;8.60;99.90;;;;;;5089935;28;20040;-82
2022/04/25 03:13:16;;;;;;;8.02;4.68;;;9.40;99.90;;;;;;5070525;28;20052;-83
2022/04/25 03:15:47;;;;;;;9.93;4.63;;;9.60;99.90;;;;;;5089356;28;20380;-83
2022/04/25 03:18:15;;;;;;;7.90;4.38;;;8.40;99.90;;;;;;5089420;28;20413;-82
2022/04/25 03:20:45;;;;;;;8.05;3.92;;;9.70;99.90;;;;;;5089116;28;20036;-82
2022/04/25 03:23:11;;;;;;;8.70;3.83;;;9.10;99.90;;;;;;5089246;28;20424;-82
2022/04/25 03:25:38;;;;;;;8.27;4.00;;;8.30;99.90;;;;;;5087861;28;20044;-82
2022/04/25 03:28:05;;;;;;;8.70;4.32;;;9.10;99.90;;;;;;5071797;28;20055;-82
2022/04/25 03:30:31;;;;;;;11.50;4.90;;;8.30;99.90;;;;;;5090952;28;20123;-82
2022/04/25 03:32:58;;;;;;;9.35;4.70;;;8.30;99.90;;;;;;5089280;28;20044;-83
2022/04/25 03:35:24;;;;;;;7.80;4.40;;;8.30;99.90;;;;;;5087989;28;20131;-82
2022/04/25 03:37:51;;;;;;;11.32;5.20;;;8.30;99.90;;;;;;5088847;28;20506;-83
2022/04/25 03:40:17;;;;;;;13.13;5.18;;;8.30;99.90;;;;;;5088574;28;20040;-83
2022/04/25 03:42:44;;;;;;;8.35;5.60;;;8.20;99.90;;;;;;5088469;28;20056;-83
2022/04/25 03:45:11;;;;;;;13.38;5.10;;;9.20;99.90;;;;;;5088831;28;20110;-83
2022/04/25 03:47:38;;;;;;;11.23;5.43;;;9.00;99.90;;;;;;5070803;28;20122;-83
2022/04/25 03:50:08;;;;;;;7.20;5.13;;;9.60;99.90;;;;;;5087164;28;20037;-83
2022/04/25 03:52:38;;;;;;;7.60;5.05;;;8.30;99.90;;;;;;5089603;28;20040;-82
2022/04/25 03:57:54;;;;;;;11.23;4.93;;;8.20;99.90;;;;;;5090132;28;20482;-82
2022/04/25 04:00:20;;;;;;;9.75;4.53;;;8.20;99.90;;;;;;5095462;28;20040;-82
2022/04/25 04:02:46;;;;;;;11.18;5.10;;;8.10;99.90;;;;;;5100450;28;20036;-84
2022/04/25 04:05:13;;;;;;;10.20;4.78;;;8.10;99.90;;;;;;5075802;28;20399;-84
2022/04/25 04:07:39;;;;;;;9.23;5.13;;;8.60;99.90;;;;;;5090695;28;20036;-83
2022/04/25 04:10:05;;;;;;;13.50;5.70;;;9.30;99.90;;;;;;5088289;28;20496;-83
2022/04/25 04:12:32;;;;;;;9.00;4.72;;;8.10;99.90;;;;;;5086649;28;20082;-82
2022/04/25 04:14:58;;;;;;;7.78;4.50;;;8.00;99.90;;;;;;5104142;28;20040;-83
2022/04/25 04:17:27;;;;;;;10.13;5.28;;;9.10;99.90;;;;;;5087733;28;20120;-83
2022/04/25 04:19:55;;;;;;;10.48;5.00;;;8.00;99.90;;;;;;5086560;28;20036;-83
2022/04/25 04:22:25;;;;;;;11.20;4.18;;;6.90;99.90;;;;;;5069020;28;20461;-83
2022/04/25 04:24:51;;;;;;;9.77;5.43;;;9.30;99.90;;;;;;5087650;28;20051;-82
2022/04/25 04:27:18;;;;;;;9.07;4.72;;;8.00;99.90;;;;;;5087141;28;20032;-82
2022/04/25 04:29:44;;;;;;;15.40;5.32;;;8.10;99.90;;;;;;5089021;28;20047;-82
2022/04/25 04:32:13;;;;;;;10.52;5.18;;;9.30;99.90;;;;;;5086434;28;20513;-82
2022/04/25 04:34:39;;;;;;;7.30;4.97;;;8.00;99.90;;;;;;5087756;28;20494;-83
2022/04/25 04:37:05;;;;;;;15.10;5.70;;;9.20;99.90;;;;;;5086177;28;20104;-83
2022/04/25 04:39:31;;;;;;;9.45;5.15;;;9.20;99.90;;;;;;5087759;28;20044;-78
2022/04/25 04:41:57;;;;;;;14.32;5.22;;;8.00;99.90;;;;;;5088767;28;20182;-80
2022/04/25 04:44:23;;;;;;;10.68;4.50;;;8.00;99.90;;;;;;5088096;28;20059;-80
2022/04/25 04:46:49;;;;;;;8.10;4.72;;;8.00;99.90;;;;;;5088015;28;20487;-79
2022/04/25 04:49:16;;;;;;;11.70;5.28;;;8.00;99.90;;;;;;5087781;28;20048;-81
2022/04/25 04:51:42;;;;;;;11.43;5.28;;;8.00;99.90;;;;;;5088226;28;20046;-80
2022/04/25 04:54:08;;;;;;;12.98;5.47;;;8.00;99.90;;;;;;5103565;28;20036;-80
2022/04/25 04:56:34;;;;;;;10.95;4.55;;;8.00;99.90;;;;;;5088095;28;20036;-81
2022/04/25 04:59:01;;;;;;;10.57;5.65;;;8.00;99.90;;;;;;5104183;28;20044;-81
2022/04/25 05:01:27;;;;;;;8.63;4.95;;;8.00;99.90;;;;;;5086919;28;20119;-80
2022/04/25 05:03:59;;;;;;;14.23;5.00;;;8.30;99.90;;;;;;5086936;28;20048;-79
2022/04/25 05:06:28;;;;;;;10.07;4.80;;;8.50;99.90;;;;;;5070230;28;20047;-80
2022/04/25 05:08:54;;;;;;;11.60;5.28;;;8.00;99.90;;;;;;5087690;28;20055;-81
2022/04/25 05:11:20;;;;;;;12.00;5.50;;;8.00;99.90;;;;;;5053126;28;20048;-81
2022/04/25 05:13:47;;;;;;;12.27;5.57;;;8.10;99.90;;;;;;5069083;28;20053;-80
2022/04/25 05:16:12;;;;;;;13.43;5.13;;;8.10;99.90;;;;;;5104132;28;20121;-81
2022/04/25 05:18:38;;;;;;;10.07;5.22;;;8.10;99.90;;;;;;5069680;28;20476;-78
2022/04/25 05:21:05;;;;;;;15.68;5.32;;;8.10;99.90;;;;;;5086208;28;20531;-79
2022/04/25 05:23:31;;;;;;;11.65;4.70;;;8.10;99.90;;;;;;5086260;28;20079;-80
2022/04/25 05:25:58;;;;;;;11.35;4.90;;;8.10;99.90;;;;;;5102859;28;20051;-79
2022/04/25 05:28:25;;;;;;;9.65;5.45;;;8.10;99.90;;;;;;5086134;28;20056;-81
2022/04/25 05:30:51;;;;;;;9.35;5.22;;;8.20;99.90;;;;;;5103296;28;20155;-81
2022/04/25 05:33:17;;;;;;;12.23;4.78;;;8.20;99.90;;;;;;5088734;28;20602;-82
2022/04/25 05:35:44;;;;;;;9.80;5.72;;;8.20;99.90;;;;;;5087792;28;20051;-80
2022/04/25 05:38:10;;;;;;;9.52;5.50;;;8.10;99.90;;;;;;5104029;28;20105;-80
2022/04/25 05:40:36;;;;;;;9.82;5.35;;;8.20;99.90;;;;;;5103556;28;20043;-79
2022/04/25 05:43:04;;;;;;;14.07;5.43;;;8.20;99.90;;;;;;5102733;28;20052;-79
2022/04/25 05:45:31;;;;;;;12.43;6.18;;;8.20;99.90;;;;;;5102844;28;20155;-79
2022/04/25 05:47:57;;;;;;;9.98;5.97;;;8.20;99.90;;;;;;5085541;28;20046;-79
2022/04/25 05:53:09;;;;;;;12.73;6.93;;;8.30;99.90;;;;;;5057664;28;20136;-78
2022/04/25 05:55:36;;;;;;;11.55;5.32;;;8.30;99.90;;;;;;5052532;28;20083;-79
2022/04/25 05:58:03;;;;;;;11.63;6.00;;;8.80;99.90;;;;;;5069544;28;20044;-80
2022/04/25 06:00:30;;;;;;;9.57;5.57;;;8.30;99.90;;;;;;5106159;28;20047;-79
2022/04/25 06:02:56;;;;;;;11.32;6.28;;;8.30;99.90;;;;;;5073349;28;20181;-78
2022/04/25 06:05:23;;;;;;;9.60;5.32;;;8.40;99.90;;;;;;5089555;28;20514;-76
2022/04/25 06:07:49;;;;;;;13.95;5.65;;;8.40;99.90;;;;;;5090080;28;20051;-78
2022/04/25 06:10:20;;;;;;;12.82;5.60;;;8.40;99.90;;;;;;5106942;28;20178;-77
2022/04/25 06:12:50;;;;;;;12.60;5.65;;;8.40;99.90;;;;;;5089370;28;20048;-77
2022/04/25 06:15:17;;;;;;;13.65;5.60;;;8.50;99.90;;;;;;5073010;28;20075;-76
2022/04/25 06:17:43;;;;;;;9.00;5.00;;;8.50;99.90;;;;;;5072300;28;20125;-76
2022/04/25 06:20:10;;;;;;;11.65;5.50;;;8.60;99.90;;;;;;5091120;28;20067;-77
2022/04/25 06:22:37;;;;;;;14.60;5.38;;;8.60;99.90;;;;;;5090556;28;20051;-77
2022/04/25 06:25:04;;;;;;;9.73;6.05;;;8.60;99.90;;;;;;5091219;28;20032;-76
2022/04/25 06:27:30;;;;;;;10.95;5.20;;;8.60;99.90;;;;;;5090533;28;20048;-76
2022/04/25 06:29:56;;;;;;;13.68;5.47;;;9.10;99.90;;;;;;5090877;28;20052;-76
2022/04/25 06:32:22;;;;;;;8.45;5.20;;;8.70;99.90;;;;;;5091033;28;20072;-76
2022/04/25 06:34:48;;;;;;;12.65;5.60;;;8.70;99.90;;;;;;5090699;28;20089;-77
2022/04/25 06:37:14;;;;;;;12.65;5.65;;;8.70;99.90;;;;;;5091396;28;20044;-80
2022/04/25 06:39:40;;;;;;;11.43;5.90;;;8.70;99.90;;;;;;5106028;28;20048;-80
2022/04/25 06:42:06;;;;;;;10.60;5.60;;;8.70;99.90;;;;;;5090621;28;20192;-77
2022/04/25 06:44:32;;;;;;;16.02;5.88;;;8.70;99.90;;;;;;5090386;28;20539;-80
2022/04/25 06:46:58;;;;;;;13.13;5.72;;;8.60;99.90;;;;;;5090384;28;20055;-78
2022/04/25 06:49:24;;;;;;;13.68;6.25;;;8.60;99.90;;;;;;5090416;28;20903;-78
2022/04/25 06:51:59;;;;;;;11.32;6.15;;;8.60;99.90;;;;;;5088859;28;20052;-78
2022/04/25 06:54:27;;;;;;;12.90;5.85;;;8.60;99.90;;;;;;5106132;28;20052;-78
2022/04/25 06:56:54;;;;;;;11.23;6.18;;;8.60;99.90;;;;;;5071682;28;20052;-76
2022/04/25 06:59:21;;;;;;;13.70;6.10;;;8.70;99.90;;;;;;5105732;28;20044;-77
2022/04/25 07:01:48;;;;;;;8.73;5.65;;;8.70;99.90;;;;;;5090721;28;20606;-78
2022/04/25 07:04:15;;;;;;;15.77;6.40;;;8.70;99.90;;;;;;5089971;28;20321;-77
2022/04/25 07:06:41;;;;;;;10.65;6.38;;;8.70;99.90;;;;;;5090286;28;20161;-77
2022/04/25 07:09:13;;;;;;;10.88;5.55;;;8.70;99.90;;;;;;5090026;28;20395;-77
2022/04/25 07:11:46;;;;;;;13.82;6.57;;;8.80;99.90;;;;;;5089557;28;20506;-77
2022/04/25 07:14:19;;;;;;;13.32;5.75;;;8.90;99.90;;;;;;5105756;28;20055;-78
2022/04/25 07:16:51;;;;;;;10.77;5.43;;;9.00;99.90;;;;;;5088537;28;20051;-77
2022/04/25 07:19:18;;;;;;;11.43;5.25;;;9.10;99.90;;;;;;5089962;28;20117;-77
2022/04/25 07:29:57;;;;;;;8.43;3.72;;;9.20;99.90;;;;;;5088024;28;20048;-78
2022/04/25 07:32:23;;;;;;;7.75;3.67;;;9.30;99.90;;;;;;5071730;28;20051;-78
2022/04/25 07:34:49;;;;;;;5.90;3.28;;;9.20;99.90;;;;;;5071144;28;20075;-77
2022/04/25 07:37:16;;;;;;;7.13;3.95;;;9.20;99.90;;;;;;5090178;28;20075;-77
2022/04/25 07:39:42;;;;;;;15.73;4.22;;;9.10;99.90;;;;;;5088309;28;20301;-78
2022/04/25 07:42:08;;;;;;;7.60;3.95;;;9.00;99.90;;;;;;5089615;28;20046;-78
2022/04/25 07:44:34;;;;;;;11.80;4.47;;;9.30;99.90;;;;;;5089314;28;20135;-78
2022/04/25 07:47:00;;;;;;;7.28;3.53;;;9.00;99.90;;;;;;5088918;28;20039;-77
2022/04/25 07:49:26;;;;;;;9.30;3.97;;;9.10;99.90;;;;;;5088164;28;20492;-77
2022/04/25 07:51:54;;;;;;;9.52;3.65;;;9.10;99.90;;;;;;5087868;28;20048;-77
2022/04/25 07:54:20;;;;;;;5.78;2.83;;;9.10;99.90;;;;;;5105011;28;20040;-78
2022/04/25 07:56:46;;;;;;;5.30;2.17;;;9.20;99.90;;;;;;5054018;28;20138;-78
2022/04/25 07:59:12;;;;;;;5.28;2.40;;;9.20;99.90;;;;;;5089285;28;20336;-77
2022/04/25 08:01:38;;;;;;;10.25;2.70;;;9.30;99.90;;;;;;5087815;28;20126;-77
2022/04/25 08:04:04;;;;;;;6.22;2.35;;;9.50;99.90;;;;;;5070633;28;20113;-76
2022/04/25 08:06:30;;;;;;;4.93;3.10;;;9.50;99.90;;;;;;5104525;28;20063;-77
2022/04/25 08:08:57;;;;;;;5.05;2.63;;;9.60;99.90;;;;;;5104252;28;20579;-77
2022/04/25 08:11:23;;;;;;;9.80;3.03;;;9.70;99.90;;;;;;5070691;28;20036;-77
2022/04/25 08:19:18;;;;;;;4.85;2.40;;;10.10;99.90;;;;;;5087970;28;20044;-78
2022/04/25 08:21:44;;;;;;;5.10;2.83;;;10.10;99.90;;;;;;5103495;28;20522;-79
2022/04/25 08:24:11;;;;;;;7.10;1.83;;;10.00;99.90;;;;;;5103838;28;20491;-77
2022/04/25 08:26:38;;;;;;;6.32;2.53;;;10.00;99.90;;;;;;5070184;28;20129;-77
2022/04/25 08:29:04;;;;;;;8.18;2.47;;;10.00;99.90;;;;;;5104097;28;20040;-77
2022/04/25 08:31:34;;;;;;;10.52;3.20;;;10.10;99.90;;;;;;5070531;28;20104;-76
2022/04/25 08:34:01;;;;;;;9.13;2.67;;;10.20;99.90;;;;;;5070163;28;20063;-76
2022/04/25 08:36:27;;;;;;;20.38;3.35;;;10.30;99.90;;;;;;5070281;28;20040;-76
2022/04/25 08:38:53;;;;;;;4.20;2.38;;;10.50;99.90;;;;;;5069702;28;20046;-76
2022/04/25 08:41:24;;;;;;;4.43;2.45;;;10.70;99.90;;;;;;5104241;28;20050;-76
2022/04/25 08:43:51;;;;;;;8.57;2.78;;;10.90;99.90;;;;;;5103527;28;20056;-75
2022/04/25 08:46:20;;;;;;;9.25;2.83;;;10.90;99.90;;;;;;5070794;28;20453;-76
2022/04/25 08:48:46;;;;;;;6.22;2.75;;;11.30;99.90;;;;;;5070470;28;20104;-76
2022/04/25 08:51:14;;;;;;;4.35;2.42;;;11.10;99.90;;;;;;5103641;28;20418;-76
2022/04/25 08:53:41;;;;;;;9.27;3.50;;;11.20;99.90;;;;;;5104123;28;20040;-76
2022/04/25 08:56:10;;;;;;;5.95;2.55;;;11.40;99.90;;;;;;5087833;28;20584;-77
2022/04/25 08:58:41;;;;;;;6.38;2.53;;;11.50;99.90;;;;;;5088730;28;20119;-77
2022/04/25 09:01:09;;;;;;;3.88;2.17;;;11.80;99.90;;;;;;5103452;28;20044;-76
2022/04/25 09:03:35;;;;;;;6.70;2.92;;;11.90;99.90;;;;;;5103074;28;20048;-76
2022/04/25 09:06:00;;;;;;;5.47;2.45;;;12.00;99.90;;;;;;5086902;28;20043;-77
2022/04/25 09:08:26;;;;;;;5.07;2.17;;;12.00;99.90;;;;;;5086520;28;20047;-77
2022/04/25 09:12:09;;;;;;;5.25;2.63;;;12.00;99.90;;;;;;5103745;28;20096;-77
2022/04/25 09:13:40;;;;;;;8.65;1.95;;;12.00;99.90;;;;;;5088982;28;20098;-77
2022/04/25 09:16:06;;;;;;;7.18;2.97;;;11.90;99.90;;;;;;5086143;28;20048;-75
2022/04/25 09:18:32;;;;;;;3.67;2.25;;;11.90;99.90;;;;;;5087928;28;20047;-76
2022/04/25 09:21:02;;;;;;;5.03;2.50;;;11.90;99.90;;;;;;5086243;28;20074;-76
2022/04/25 09:23:28;;;;;;;5.70;1.83;;;11.90;99.90;;;;;;5103244;28;20164;-76
2022/04/25 09:26:27;;;;;;;5.85;2.55;;;11.90;99.90;;;;;;5086163;28;20094;-77
2022/04/25 09:28:54;;;;;;;4.43;2.15;;;11.90;99.90;;;;;;5086104;28;20052;-76
2022/04/25 09:31:25;;;;;;;5.90;2.53;;;11.90;99.90;;;;;;5088082;28;20044;-77
2022/04/25 09:33:51;;;;;;;4.05;1.90;;;11.90;99.90;;;;;;5086844;28;20123;-78
2022/04/25 09:36:17;;;;;;;4.35;2.30;;;11.90;99.90;;;;;;5087856;28;20040;-77
2022/04/25 09:38:44;;;;;;;6.05;2.13;;;12.00;99.90;;;;;;5087233;28;20169;-75
2022/04/25 09:41:13;;;;;;;10.32;2.33;;;12.00;99.90;;;;;;5086516;28;20064;-76
2022/04/25 09:43:40;;;;;;;5.05;1.90;;;12.10;99.90;;;;;;5102605;28;20514;-77
2022/04/25 09:46:09;;;;;;;3.72;1.70;;;12.20;99.90;;;;;;5103020;28;20132;-77
2022/04/25 09:48:36;;;;;;;4.85;1.98;;;12.20;99.90;;;;;;5103398;28;20608;-77
2022/04/25 09:51:03;;;;;;;5.93;2.58;;;12.40;99.90;;;;;;5087174;28;20499;-76
2022/04/25 09:53:52;;;;;;;3.97;2.03;;;12.50;99.90;;;;;;5085938;28;20491;-76
2022/04/25 09:56:21;;;;;;;4.15;1.88;;;12.70;99.90;;;;;;5085790;28;20397;-76
2022/04/25 09:59:02;;;;;;;7.00;2.17;;;12.90;99.90;;;;;;5087415;28;20094;-77
2022/04/25 10:01:29;;;;;;;3.72;2.00;;;13.10;99.90;;;;;;5102945;28;20507;-77
2022/04/25 10:03:55;;;;;;;4.63;2.17;;;13.30;99.90;;;;;;5102348;28;20193;-77
2022/04/25 10:06:22;;;;;;;4.85;2.10;;;13.50;99.90;;;;;;5069202;28;20043;-78
2022/04/25 10:08:49;;;;;;;4.43;1.60;;;13.70;99.90;;;;;;5102161;28;20483;-77
2022/04/25 10:11:18;;;;;;;4.30;2.25;;;13.80;99.90;;;;;;5103138;28;20052;-77
2022/04/25 10:13:46;;;;;;;6.85;1.90;;;14.10;99.90;;;;;;5069388;28;20036;-77
2022/04/25 10:16:12;;;;;;;3.20;2.25;;;14.30;99.90;;;;;;5102611;28;20380;-76
2022/04/25 10:18:39;;;;;;;3.75;2.08;;;14.50;99.90;;;;;;5103259;28;20040;-77
2022/04/25 10:21:07;;;;;;;6.60;2.15;;;14.70;99.90;;;;;;5085968;28;20047;-77
2022/04/25 10:23:33;;;;;;;2.60;1.65;;;14.90;99.90;;;;;;5087125;28;20479;-77
2022/04/25 10:25:59;;;;;;;2.60;1.45;;;15.00;99.90;;;;;;5102390;28;20106;-77
2022/04/25 10:28:42;;;;;;;7.88;2.05;;;14.90;99.90;;;;;;5052719;28;20482;-77
2022/04/25 10:31:18;;;;;;;6.75;2.25;;;14.60;99.70;;;;;;5087367;28;20040;-77
2022/04/25 10:33:58;;;;;;;5.28;1.80;;;14.50;99.90;;;;;;5086603;28;20479;-77
2022/04/25 10:36:39;;;;;;;4.03;1.75;;;14.30;99.90;;;;;;5069115;28;20051;-78
2022/04/25 10:39:19;;;;;;;4.70;1.85;;;14.10;99.70;;;;;;5102310;28;20204;-77
2022/04/25 10:44:48;;;;;;;3.22;2.17;;;14.00;99.90;;;;;;5087024;28;20118;-76
2022/04/25 10:47:16;;;;;;;3.08;2.25;;;13.90;99.90;;;;;;5089299;28;20123;-77
2022/04/25 10:49:56;;;;;;;5.30;1.58;;;14.00;99.90;;;;;;5106306;28;20059;-77
2022/04/25 10:52:42;;;;;;;4.20;1.75;;;14.00;99.80;;;;;;5106651;28;20060;-77
2022/04/25 10:55:23;;;;;;;5.75;1.50;;;14.00;97.80;;;;;;5071872;28;20534;-77
2022/04/25 10:58:04;;;;;;;5.88;1.85;;;14.00;98.50;;;;;;5089434;28;20051;-78
2022/04/25 11:00:43;;;;;;;4.18;1.60;;;14.00;98.20;;;;;;5072000;28;20044;-77
2022/04/25 11:03:15;;;;;;;4.70;1.42;;;14.10;98.50;;;;;;5071531;28;20078;-77
2022/04/25 11:05:44;;;;;;;6.93;2.03;;;14.10;99.10;;;;;;5088676;28;20123;-77
2022/04/25 11:08:16;;;;;;;7.18;2.25;;;14.20;99.00;;;;;;5105512;28;20542;-78
2022/04/25 11:10:47;;;;;;;2.75;1.38;;;14.20;97.70;;;;;;5090199;28;20060;-78
2022/04/25 11:13:14;;;;;;;4.63;2.28;;;14.20;98.10;;;;;;5105863;28;20391;-76
2022/04/25 11:15:48;;;;;;;3.40;2.22;;;14.20;98.20;;;;;;5072024;28;20059;-77
2022/04/25 11:18:33;;;;;;;3.88;2.08;;;14.20;97.60;;;;;;5072014;28;20048;-77
2022/04/25 11:21:14;;;;;;;3.00;1.83;;;14.30;97.20;;;;;;5105394;28;20066;-76
2022/04/25 11:23:43;;;;;;;5.53;2.05;;;14.30;96.40;;;;;;5071790;28;20535;-76
2022/04/25 11:26:11;;;;;;;5.97;1.70;;;14.30;96.30;;;;;;5071159;28;20052;-77
2022/04/25 11:29:01;;;;;;;4.90;2.28;;;14.30;97.40;;;;;;5105509;28;20040;-76
2022/04/25 11:31:38;;;;;;;5.40;2.05;;;14.20;98.40;;;;;;5071977;28;20047;-76
2022/04/25 11:34:07;;;;;;;5.68;2.35;;;14.20;99.20;;;;;;5070995;28;20054;-76
2022/04/25 11:36:43;;;;;;;3.85;2.00;;;14.20;99.50;;;;;;5105129;28;20048;-76
2022/04/25 11:41:57;;;;;;;6.22;1.98;;;14.00;99.90;;;;;;5087963;28;20050;-77
2022/04/25 11:44:23;;;;;;;6.70;2.15;;;14.00;99.90;;;;;;5104758;28;20052;-77
2022/04/25 11:46:49;;;;;;;3.00;1.67;;;14.00;99.90;;;;;;5105132;28;20067;-76
2022/04/25 11:49:29;;;;;;;3.70;2.10;;;14.10;99.90;;;;;;5105196;28;20051;-76
2022/04/25 11:51:58;;;;;;;5.32;2.47;;;14.00;99.90;;;;;;5088142;28;20392;-76
2022/04/25 11:54:26;;;;;;;8.05;2.60;;;13.90;99.90;;;;;;5071193;28;20127;-77
2022/04/25 11:56:52;;;;;;;5.80;2.70;;;13.90;99.90;;;;;;5087867;28;20537;-77
2022/04/25 11:59:19;;;;;;;7.05;2.55;;;13.70;99.90;;;;;;5054137;28;20096;-77
2022/04/25 12:01:48;;;;;;;4.10;2.25;;;14.00;99.90;;;;;;5071097;28;20040;-77
2022/04/25 12:04:20;;;;;;;8.98;1.92;;;14.00;99.90;;;;;;5103871;28;20086;-77
2022/04/25 12:07:02;;;;;;;8.13;3.17;;;13.90;99.90;;;;;;5104462;28;20052;-78
2022/04/25 12:15:34;;;;;;;3.40;1.98;;;13.90;99.90;;;;;;5087836;28;20402;-77
2022/04/25 12:18:15;;;;;;;3.55;2.35;;;13.90;99.90;;;;;;5104460;28;20040;-78
2022/04/25 12:20:42;;;;;;;3.90;2.35;;;13.80;99.90;;;;;;5104635;28;20514;-78
2022/04/25 12:23:09;;;;;;;4.15;2.60;;;13.80;99.90;;;;;;5054374;28;20530;-78
2022/04/25 12:25:40;;;;;;;5.53;2.72;;;13.80;99.90;;;;;;5087231;28;20575;-78
2022/04/25 12:28:06;;;;;;;6.63;2.78;;;13.90;99.90;;;;;;5089123;28;20484;-78
2022/04/25 12:30:44;;;;;;;7.57;3.05;;;14.10;99.90;;;;;;5104069;28;20080;-78
2022/04/25 12:33:11;;;;;;;3.25;2.08;;;14.40;99.90;;;;;;5088614;28;20513;-78
2022/04/25 12:35:38;;;;;;;6.32;2.50;;;14.70;99.90;;;;;;5104719;28;20105;-79
2022/04/25 12:38:07;;;;;;;3.92;2.50;;;15.00;98.90;;;;;;5088134;28;20044;-78
2022/04/25 12:40:53;;;;;;;5.80;2.38;;;15.40;98.50;;;;;;5104290;28;20055;-78
2022/04/25 12:43:45;;;;;;;5.43;2.28;;;15.40;97.20;;;;;;5086942;28;20060;-77
2022/04/25 12:46:12;;;;;;;4.53;2.03;;;15.40;94.60;;;;;;5087813;28;20555;-77
2022/04/25 12:48:58;;;;;;;5.85;2.35;;;15.20;97.20;;;;;;5088770;28;20326;-77
2022/04/25 12:51:30;;;;;;;4.15;2.10;;;15.00;95.60;;;;;;5087652;28;20040;-78
2022/04/25 12:53:56;;;;;;;6.68;2.90;;;14.80;96.90;;;;;;5087002;28;20079;-77
2022/04/25 12:56:26;;;;;;;6.45;2.88;;;14.70;98.10;;;;;;5104136;28;20078;-77
2022/04/25 12:58:53;;;;;;;3.70;2.45;;;14.60;98.60;;;;;;5103361;28;20083;-78
2022/04/25 13:01:34;;;;;;;4.78;2.72;;;14.60;98.90;;;;;;5086739;28;20078;-78
2022/04/25 13:04:09;;;;;;;3.38;2.28;;;14.70;98.30;;;;;;5069208;28;20051;-78
2022/04/25 13:06:37;;;;;;;6.32;3.15;;;15.10;98.10;;;;;;5103755;28;20548;-78
2022/04/25 13:09:05;;;;;;;6.93;2.53;;;15.40;97.50;;;;;;5087570;28;20048;-77
2022/04/25 13:11:30;;;;;;;4.38;2.28;;;15.90;96.10;;;;;;5087975;28;20044;-76
2022/04/25 13:13:57;;;;;;;4.57;2.60;;;16.30;95.10;;;;;;5088305;28;20364;-76
2022/04/25 13:16:24;;;;;;;6.85;3.17;;;16.50;94.60;;;;;;5087191;28;20048;-76
2022/04/25 13:18:50;;;;;;;4.22;2.55;;;16.50;93.20;;;;;;5088159;28;20063;-77
2022/04/25 13:21:16;;;;;;;6.55;2.83;;;16.60;93.00;;;;;;5087545;28;20187;-77
2022/04/25 13:23:42;;;;;;;5.68;2.80;;;16.60;92.40;;;;;;5087875;28;20166;-77
2022/04/25 13:26:09;;;;;;;5.68;2.72;;;16.80;92.40;;;;;;5087780;28;20507;-77
2022/04/25 13:28:35;;;;;;;4.07;2.70;;;17.00;91.50;;;;;;5085931;28;20129;-77